Time;durP1;ratioP1;P1;durP2;ratioP2;P2;SDS_P1;SDS_P2;PMS_P1;PMS_P2;Temp;Humidity;BMP_temperature;BMP_pressure;BME280_temperature;BME280_humidity;BME280_pressure;Samples;Min_cycle;Max_cycle;Signal;HPM_P1;HPM_P2
2021/12/18 00:00:07;;;;;;;0.00;0.00;;;;;;;;;;1736934;28;20221;-66
2021/12/18 00:00:59;;;;;;;0.00;0.00;;;;;;;;;;1740670;28;20276;-66
2021/12/18 00:01:51;;;;;;;0.00;0.00;;;;;;;;;;1747290;28;20213;-66
2021/12/18 00:02:43;;;;;;;0.00;0.00;;;;;;;;;;1747388;28;20213;-66
2021/12/18 00:03:35;;;;;;;0.00;0.00;;;;;;;;;;1746248;28;20293;-66
2021/12/18 00:04:26;;;;;;;0.00;0.00;;;;;;;;;;1747498;28;20213;-65
2021/12/18 00:05:20;;;;;;;0.00;0.00;;;;;;;;;;1745184;28;20285;-66
2021/12/18 00:06:12;;;;;;;0.00;0.00;;;;;;;;;;1747194;28;20255;-66
2021/12/18 00:07:04;;;;;;;0.00;0.00;;;;;;;;;;1746040;28;20202;-66
2021/12/18 00:07:55;;;;;;;0.00;0.00;;;;;;;;;;1748294;28;20216;-66
2021/12/18 00:08:48;;;;;;;0.00;0.00;;;;;;;;;;1745829;28;20229;-66
2021/12/18 00:09:40;;;;;;;0.00;0.00;;;;;;;;;;1747140;28;20274;-66
2021/12/18 00:10:33;;;;;;;0.00;0.00;;;;;;;;;;1745956;28;20214;-66
2021/12/18 00:11:24;;;;;;;0.00;0.00;;;;;;;;;;1747998;28;20220;-66
2021/12/18 00:12:16;;;;;;;0.00;0.00;;;;;;;;;;1745819;28;21401;-65
2021/12/18 00:13:07;;;;;;;0.00;0.00;;;;;;;;;;1747571;28;20631;-65
2021/12/18 00:13:59;;;;;;;0.00;0.00;;;;;;;;;;1746263;28;20670;-66
2021/12/18 00:14:51;;;;;;;0.00;0.00;;;;;;;;;;1747836;28;20206;-66
2021/12/18 00:15:43;;;;;;;0.00;0.00;;;;;;;;;;1745063;28;20248;-66
2021/12/18 00:16:34;;;;;;;0.00;0.00;;;;;;;;;;1746160;28;20202;-66
2021/12/18 00:17:26;;;;;;;0.00;0.00;;;;;;;;;;1746362;28;20679;-66
2021/12/18 00:18:17;;;;;;;0.00;0.00;;;;;;;;;;1747474;28;20618;-66
2021/12/18 00:19:09;;;;;;;0.00;0.00;;;;;;;;;;1746459;28;20194;-66
2021/12/18 00:20:01;;;;;;;0.00;0.00;;;;;;;;;;1746568;28;20202;-66
2021/12/18 00:20:55;;;;;;;0.00;0.00;;;;;;;;;;1746254;28;20268;-66
2021/12/18 00:21:46;;;;;;;0.00;0.00;;;;;;;;;;1743504;28;20206;-66
2021/12/18 00:22:38;;;;;;;0.00;0.00;;;;;;;;;;1747825;28;20224;-65
2021/12/18 00:23:29;;;;;;;0.00;0.00;;;;;;;;;;1745455;28;20214;-65
2021/12/18 00:24:24;;;;;;;0.00;0.00;;;;;;;;;;1748185;28;20191;-66
2021/12/18 00:25:15;;;;;;;0.00;0.00;;;;;;;;;;1746153;28;20279;-65
2021/12/18 00:26:07;;;;;;;0.00;0.00;;;;;;;;;;1746774;28;20267;-65
2021/12/18 00:26:59;;;;;;;0.00;0.00;;;;;;;;;;1745929;28;20245;-65
2021/12/18 00:27:51;;;;;;;0.00;0.00;;;;;;;;;;1747315;28;20701;-66
2021/12/18 00:28:42;;;;;;;0.00;0.00;;;;;;;;;;1745672;28;20230;-66
2021/12/18 00:29:34;;;;;;;0.00;0.00;;;;;;;;;;1747512;28;20410;-66
2021/12/18 00:30:26;;;;;;;0.10;0.10;;;;;;;;;;1744913;28;20210;-66
2021/12/18 00:31:18;;;;;;;0.00;0.00;;;;;;;;;;1749304;28;20252;-66
2021/12/18 00:32:09;;;;;;;0.05;0.05;;;;;;;;;;1746041;28;20648;-66
2021/12/18 00:33:02;;;;;;;0.00;0.00;;;;;;;;;;1749116;28;20230;-65
2021/12/18 00:33:54;;;;;;;0.10;0.10;;;;;;;;;;1750996;28;20496;-66
2021/12/18 00:34:46;;;;;;;0.00;0.00;;;;;;;;;;1749033;28;20230;-66
2021/12/18 00:35:37;;;;;;;0.00;0.00;;;;;;;;;;1750414;28;20205;-66
2021/12/18 00:36:30;;;;;;;0.00;0.00;;;;;;;;;;1746988;28;20225;-65
2021/12/18 00:37:22;;;;;;;0.00;0.00;;;;;;;;;;1745833;28;20295;-65
2021/12/18 00:38:14;;;;;;;0.00;0.00;;;;;;;;;;1747515;28;20202;-65
2021/12/18 00:39:06;;;;;;;0.00;0.00;;;;;;;;;;1744812;28;20226;-66
2021/12/18 00:40:00;;;;;;;0.00;0.00;;;;;;;;;;1746088;28;20186;-66
2021/12/18 00:41:10;;;;;;;0.00;0.00;;;;;;;;;;1745764;28;20732;-65
2021/12/18 00:42:20;;;;;;;0.00;0.00;;;;;;;;;;1740245;28;20571;-66
2021/12/18 00:43:23;;;;;;;0.00;0.00;;;;;;;;;;1747490;28;20267;-65
2021/12/18 00:44:16;;;;;;;0.00;0.00;;;;;;;;;;1747281;28;20205;-66
2021/12/18 00:45:09;;;;;;;0.00;0.00;;;;;;;;;;1743512;28;20617;-66
2021/12/18 00:46:02;;;;;;;0.00;0.00;;;;;;;;;;1746577;28;20222;-66
2021/12/18 00:46:53;;;;;;;0.00;0.00;;;;;;;;;;1747088;28;20203;-66
2021/12/18 00:47:46;;;;;;;0.00;0.00;;;;;;;;;;1747067;28;20510;-66
2021/12/18 00:48:37;;;;;;;0.00;0.00;;;;;;;;;;1745907;28;20226;-66
2021/12/18 00:49:30;;;;;;;0.00;0.00;;;;;;;;;;1747366;28;20727;-66
2021/12/18 00:50:22;;;;;;;0.00;0.00;;;;;;;;;;1745180;28;20202;-66
2021/12/18 00:51:15;;;;;;;0.00;0.00;;;;;;;;;;1747321;28;20221;-65
2021/12/18 00:52:07;;;;;;;0.00;0.00;;;;;;;;;;1745727;28;20572;-65
2021/12/18 00:52:59;;;;;;;0.00;0.00;;;;;;;;;;1747245;28;20572;-65
2021/12/18 00:53:51;;;;;;;0.00;0.00;;;;;;;;;;1745685;28;20210;-65
2021/12/18 00:54:43;;;;;;;0.00;0.00;;;;;;;;;;1749383;28;20260;-66
2021/12/18 00:55:36;;;;;;;0.00;0.00;;;;;;;;;;1749510;28;20325;-65
2021/12/18 00:56:29;;;;;;;0.00;0.00;;;;;;;;;;1747444;28;20209;-66
2021/12/18 00:57:20;;;;;;;0.00;0.00;;;;;;;;;;1746328;28;20209;-66
2021/12/18 00:58:13;;;;;;;0.00;0.00;;;;;;;;;;1747916;28;20651;-66
2021/12/18 00:59:04;;;;;;;0.00;0.00;;;;;;;;;;1745597;28;20874;-66
2021/12/18 01:00:00;;;;;;;0.00;0.00;;;;;;;;;;1749477;28;20288;-66
2021/12/18 01:00:53;;;;;;;0.00;0.00;;;;;;;;;;1746429;28;20699;-66
2021/12/18 01:01:46;;;;;;;0.00;0.00;;;;;;;;;;1745281;28;20264;-66
2021/12/18 01:02:41;;;;;;;0.00;0.00;;;;;;;;;;1747624;28;20211;-66
2021/12/18 01:03:34;;;;;;;0.00;0.00;;;;;;;;;;1746294;28;20688;-66
2021/12/18 01:04:26;;;;;;;0.00;0.00;;;;;;;;;;1747561;28;20617;-66
2021/12/18 01:05:18;;;;;;;0.00;0.00;;;;;;;;;;1745600;28;20198;-66
2021/12/18 01:06:10;;;;;;;0.00;0.00;;;;;;;;;;1746756;28;20283;-66
2021/12/18 01:07:02;;;;;;;0.00;0.00;;;;;;;;;;1745766;28;20613;-65
2021/12/18 01:07:56;;;;;;;0.00;0.00;;;;;;;;;;1746448;28;20695;-66
2021/12/18 01:08:50;;;;;;;0.00;0.00;;;;;;;;;;1745659;28;20237;-66
2021/12/18 01:09:55;;;;;;;0.00;0.00;;;;;;;;;;1746758;28;20206;-66
2021/12/18 01:11:08;;;;;;;0.00;0.00;;;;;;;;;;1744740;28;20229;-66
2021/12/18 01:11:59;;;;;;;0.00;0.00;;;;;;;;;;1745577;28;20538;-66
2021/12/18 01:12:54;;;;;;;0.00;0.00;;;;;;;;;;1747046;28;20671;-67
2021/12/18 01:13:57;;;;;;;0.00;0.00;;;;;;;;;;1746731;28;20202;-65
2021/12/18 01:15:03;;;;;;;0.00;0.00;;;;;;;;;;1749296;28;20695;-66
2021/12/18 01:15:57;;;;;;;0.00;0.00;;;;;;;;;;1748359;28;20256;-66
2021/12/18 01:16:59;;;;;;;0.00;0.00;;;;;;;;;;1743200;28;20238;-66
2021/12/18 01:22:49;;;;;;;0.00;0.00;;;;;;;;;;1745678;28;20198;-66
2021/12/18 01:23:41;;;;;;;0.00;0.00;;;;;;;;;;1745789;28;20622;-66
2021/12/18 01:24:33;;;;;;;0.00;0.00;;;;;;;;;;1746541;28;20210;-66
2021/12/18 01:25:25;;;;;;;0.00;0.00;;;;;;;;;;1745718;28;20228;-66
2021/12/18 01:26:17;;;;;;;0.00;0.00;;;;;;;;;;1747887;28;20229;-66
2021/12/18 01:27:09;;;;;;;0.00;0.00;;;;;;;;;;1745526;28;20668;-66
2021/12/18 01:28:01;;;;;;;0.00;0.00;;;;;;;;;;1746370;28;20216;-65
2021/12/18 01:28:52;;;;;;;0.00;0.00;;;;;;;;;;1744633;28;20222;-65
2021/12/18 01:29:44;;;;;;;0.00;0.00;;;;;;;;;;1749364;28;20241;-66
2021/12/18 01:30:35;;;;;;;0.00;0.00;;;;;;;;;;1743476;28;20206;-66
2021/12/18 01:31:28;;;;;;;0.00;0.00;;;;;;;;;;1741889;28;20292;-66
2021/12/18 01:32:19;;;;;;;0.00;0.00;;;;;;;;;;1745138;28;20675;-66
2021/12/18 01:33:11;;;;;;;0.00;0.00;;;;;;;;;;1745893;28;20198;-65
2021/12/18 01:34:02;;;;;;;0.00;0.00;;;;;;;;;;1746514;28;20210;-66
2021/12/18 01:34:55;;;;;;;0.00;0.00;;;;;;;;;;1747693;28;20226;-66
2021/12/18 01:35:47;;;;;;;0.00;0.00;;;;;;;;;;1748372;28;20621;-66
2021/12/18 01:36:38;;;;;;;0.00;0.00;;;;;;;;;;1742875;28;20210;-65
2021/12/18 01:37:30;;;;;;;0.00;0.00;;;;;;;;;;1742765;28;20209;-66
2021/12/18 01:38:23;;;;;;;0.00;0.00;;;;;;;;;;1747918;28;20203;-66
2021/12/18 01:39:17;;;;;;;0.00;0.00;;;;;;;;;;1746633;28;20213;-65
2021/12/18 01:40:08;;;;;;;0.00;0.00;;;;;;;;;;1744198;28;20203;-66
2021/12/18 01:41:02;;;;;;;0.00;0.00;;;;;;;;;;1744979;28;20225;-66
2021/12/18 01:42:12;;;;;;;0.00;0.00;;;;;;;;;;1745831;28;20217;-66
2021/12/18 01:44:49;;;;;;;0.00;0.00;;;;;;;;;;1744827;28;20190;-66
2021/12/18 01:46:01;;;;;;;0.00;0.00;;;;;;;;;;1743140;28;20234;-66
2021/12/18 01:47:07;;;;;;;0.00;0.00;;;;;;;;;;1744132;28;20718;-65
2021/12/18 01:51:48;;;;;;;0.00;0.00;;;;;;;;;;1742397;28;20613;-66
2021/12/18 01:52:40;;;;;;;0.00;0.00;;;;;;;;;;1745134;28;20741;-65
2021/12/18 01:53:32;;;;;;;0.00;0.00;;;;;;;;;;1751407;28;20208;-66
2021/12/18 01:54:25;;;;;;;0.00;0.00;;;;;;;;;;1745151;28;20999;-66
2021/12/18 01:55:16;;;;;;;0.00;0.00;;;;;;;;;;1747917;28;20233;-65
2021/12/18 01:56:09;;;;;;;0.00;0.00;;;;;;;;;;1748087;28;20529;-66
2021/12/18 01:57:00;;;;;;;0.00;0.00;;;;;;;;;;1746185;28;20664;-66
2021/12/18 01:57:53;;;;;;;0.00;0.00;;;;;;;;;;1747704;28;20209;-66
2021/12/18 01:58:44;;;;;;;0.00;0.00;;;;;;;;;;1744908;28;20462;-66
2021/12/18 01:59:38;;;;;;;0.00;0.00;;;;;;;;;;1747383;28;20288;-65
2021/12/18 02:00:34;;;;;;;0.00;0.00;;;;;;;;;;1745138;28;20679;-66
2021/12/18 02:01:28;;;;;;;0.00;0.00;;;;;;;;;;1746731;28;20238;-66
2021/12/18 02:02:20;;;;;;;0.00;0.00;;;;;;;;;;1745516;28;20202;-65
2021/12/18 02:03:12;;;;;;;0.00;0.00;;;;;;;;;;1749508;28;20280;-66
2021/12/18 02:04:04;;;;;;;0.00;0.00;;;;;;;;;;1746063;28;20217;-66
2021/12/18 02:04:56;;;;;;;0.00;0.00;;;;;;;;;;1745566;28;20688;-65
2021/12/18 02:05:48;;;;;;;0.00;0.00;;;;;;;;;;1744548;28;20596;-66
2021/12/18 02:06:40;;;;;;;0.00;0.00;;;;;;;;;;1746726;28;20208;-66
2021/12/18 02:07:31;;;;;;;0.00;0.00;;;;;;;;;;1746865;28;20209;-66
2021/12/18 02:08:26;;;;;;;0.00;0.00;;;;;;;;;;1746004;28;20236;-66
2021/12/18 02:09:17;;;;;;;0.00;0.00;;;;;;;;;;1746937;28;20204;-65
2021/12/18 02:10:17;;;;;;;0.00;0.00;;;;;;;;;;1746084;28;20210;-66
2021/12/18 02:11:13;;;;;;;0.00;0.00;;;;;;;;;;1745751;28;20229;-65
2021/12/18 02:12:06;;;;;;;0.00;0.00;;;;;;;;;;1745473;28;20178;-65
2021/12/18 02:13:03;;;;;;;0.00;0.00;;;;;;;;;;1748173;28;20210;-66
2021/12/18 02:14:34;;;;;;;0.00;0.00;;;;;;;;;;1750414;28;20600;-66
2021/12/18 02:20:22;;;;;;;0.00;0.00;;;;;;;;;;1752511;28;20663;-66
2021/12/18 02:21:14;;;;;;;0.00;0.00;;;;;;;;;;1746660;28;20225;-66
2021/12/18 02:22:07;;;;;;;0.00;0.00;;;;;;;;;;1745821;28;20230;-65
2021/12/18 02:22:59;;;;;;;0.00;0.00;;;;;;;;;;1746148;28;20258;-65
2021/12/18 02:23:51;;;;;;;0.00;0.00;;;;;;;;;;1745455;28;20248;-65
2021/12/18 02:24:43;;;;;;;0.00;0.00;;;;;;;;;;1747024;28;20202;-65
2021/12/18 02:25:36;;;;;;;0.00;0.00;;;;;;;;;;1744587;28;20267;-65
2021/12/18 02:26:28;;;;;;;0.00;0.00;;;;;;;;;;1747966;28;20244;-66
2021/12/18 02:27:20;;;;;;;0.00;0.00;;;;;;;;;;1746880;28;20193;-65
2021/12/18 02:28:16;;;;;;;0.00;0.00;;;;;;;;;;1747032;28;20207;-66
2021/12/18 02:29:13;;;;;;;0.00;0.00;;;;;;;;;;1744233;28;20668;-65
2021/12/18 02:30:05;;;;;;;0.00;0.00;;;;;;;;;;1746016;28;20198;-66
2021/12/18 02:30:58;;;;;;;0.00;0.00;;;;;;;;;;1745052;28;20751;-66
2021/12/18 02:31:49;;;;;;;0.00;0.00;;;;;;;;;;1743668;28;20604;-66
2021/12/18 02:32:41;;;;;;;0.00;0.00;;;;;;;;;;1746922;28;20210;-65
2021/12/18 02:33:33;;;;;;;0.00;0.00;;;;;;;;;;1745598;28;20569;-65
2021/12/18 02:34:29;;;;;;;0.00;0.00;;;;;;;;;;1747023;28;20589;-65
2021/12/18 02:35:27;;;;;;;0.00;0.00;;;;;;;;;;1744290;28;20214;-66
2021/12/18 02:36:23;;;;;;;0.00;0.00;;;;;;;;;;1746757;28;20695;-65
2021/12/18 02:37:22;;;;;;;0.00;0.00;;;;;;;;;;1745793;28;20221;-65
2021/12/18 02:38:17;;;;;;;0.00;0.00;;;;;;;;;;1746864;28;20198;-66
2021/12/18 02:39:20;;;;;;;0.00;0.00;;;;;;;;;;1746804;28;20195;-65
2021/12/18 02:41:28;;;;;;;0.00;0.00;;;;;;;;;;1746098;28;20236;-65
2021/12/18 02:42:21;;;;;;;0.00;0.00;;;;;;;;;;1745755;28;20609;-66
2021/12/18 02:43:16;;;;;;;0.00;0.00;;;;;;;;;;1747306;28;20785;-66
2021/12/18 02:44:08;;;;;;;0.00;0.00;;;;;;;;;;1746235;28;20195;-65
2021/12/18 02:45:00;;;;;;;0.00;0.00;;;;;;;;;;1746879;28;20290;-66
2021/12/18 02:45:54;;;;;;;0.00;0.00;;;;;;;;;;1745391;28;20256;-64
2021/12/18 02:46:47;;;;;;;0.00;0.00;;;;;;;;;;1745279;28;20198;-65
2021/12/18 02:47:38;;;;;;;0.00;0.00;;;;;;;;;;1745892;28;20202;-66
2021/12/18 02:48:31;;;;;;;0.00;0.00;;;;;;;;;;1745442;28;20221;-65
2021/12/18 02:49:22;;;;;;;0.00;0.00;;;;;;;;;;1746908;28;20217;-66
2021/12/18 02:50:14;;;;;;;0.00;0.00;;;;;;;;;;1745609;28;20932;-66
2021/12/18 02:51:08;;;;;;;0.00;0.00;;;;;;;;;;1746501;28;20231;-65
2021/12/18 02:52:00;;;;;;;0.00;0.00;;;;;;;;;;1745685;28;20209;-65
2021/12/18 02:52:51;;;;;;;0.00;0.00;;;;;;;;;;1746393;28;20208;-65
2021/12/18 02:53:49;;;;;;;0.00;0.00;;;;;;;;;;1750985;28;20205;-65
2021/12/18 02:54:41;;;;;;;0.00;0.00;;;;;;;;;;1746483;28;20861;-66
2021/12/18 02:55:34;;;;;;;0.00;0.00;;;;;;;;;;1744970;28;20262;-65
2021/12/18 02:56:25;;;;;;;0.00;0.00;;;;;;;;;;1747335;28;20213;-66
2021/12/18 02:57:17;;;;;;;0.00;0.00;;;;;;;;;;1745591;28;20202;-65
2021/12/18 02:58:08;;;;;;;0.00;0.00;;;;;;;;;;1747638;28;20205;-67
2021/12/18 02:59:04;;;;;;;0.00;0.00;;;;;;;;;;1744813;28;20224;-65
2021/12/18 02:59:58;;;;;;;0.00;0.00;;;;;;;;;;1746553;28;20723;-65
2021/12/18 03:00:51;;;;;;;0.00;0.00;;;;;;;;;;1745338;28;20634;-65
2021/12/18 03:01:42;;;;;;;0.00;0.00;;;;;;;;;;1748253;28;20253;-66
2021/12/18 03:02:40;;;;;;;0.00;0.00;;;;;;;;;;1746979;28;20234;-64
2021/12/18 03:03:34;;;;;;;0.03;0.03;;;;;;;;;;1745480;28;20209;-65
2021/12/18 03:04:32;;;;;;;0.00;0.00;;;;;;;;;;1748324;28;20205;-65
2021/12/18 03:05:29;;;;;;;0.00;0.00;;;;;;;;;;1746662;28;20202;-64
2021/12/18 03:06:29;;;;;;;0.00;0.00;;;;;;;;;;1749885;28;20217;-65
2021/12/18 03:07:23;;;;;;;0.00;0.00;;;;;;;;;;1746122;28;20207;-64
2021/12/18 03:08:22;;;;;;;0.00;0.00;;;;;;;;;;1751739;28;20684;-66
2021/12/18 03:19:47;;;;;;;0.00;0.00;;;;;;;;;;1718991;28;20615;-65
2021/12/18 03:23:06;;;;;;;0.00;0.00;;;;;;;;;;1725824;28;20274;-65
2021/12/18 03:24:20;;;;;;;0.00;0.00;;;;;;;;;;1742245;28;20202;-68
2021/12/18 03:25:17;;;;;;;0.00;0.00;;;;;;;;;;1745354;28;20237;-68
2021/12/18 03:26:12;;;;;;;0.00;0.00;;;;;;;;;;1748525;28;20271;-65
2021/12/18 03:27:07;;;;;;;0.00;0.00;;;;;;;;;;1746840;28;20210;-66
2021/12/18 03:28:00;;;;;;;0.00;0.00;;;;;;;;;;1746852;28;20268;-67
2021/12/18 03:28:51;;;;;;;0.00;0.00;;;;;;;;;;1746580;28;20230;-65
2021/12/18 03:29:43;;;;;;;0.00;0.00;;;;;;;;;;1747078;28;20225;-68
2021/12/18 03:30:35;;;;;;;0.00;0.00;;;;;;;;;;1746498;28;20230;-67
2021/12/18 03:31:28;;;;;;;0.00;0.00;;;;;;;;;;1747869;28;20688;-66
2021/12/18 03:32:19;;;;;;;0.00;0.00;;;;;;;;;;1746885;28;20205;-66
2021/12/18 03:33:11;;;;;;;0.00;0.00;;;;;;;;;;1749807;28;20201;-68
2021/12/18 03:34:06;;;;;;;0.00;0.00;;;;;;;;;;1747086;28;20221;-66
2021/12/18 03:34:58;;;;;;;0.00;0.00;;;;;;;;;;1749844;28;20194;-66
2021/12/18 03:35:49;;;;;;;0.00;0.00;;;;;;;;;;1745464;28;20244;-66
2021/12/18 03:36:43;;;;;;;0.00;0.00;;;;;;;;;;1748294;28;20260;-66
2021/12/18 03:37:35;;;;;;;0.00;0.00;;;;;;;;;;1747030;28;21212;-66
2021/12/18 03:38:27;;;;;;;0.00;0.00;;;;;;;;;;1746574;28;20214;-66
2021/12/18 03:39:18;;;;;;;0.00;0.00;;;;;;;;;;1749004;28;20209;-66
2021/12/18 03:40:13;;;;;;;0.00;0.00;;;;;;;;;;1746315;28;20293;-66
2021/12/18 03:41:05;;;;;;;0.00;0.00;;;;;;;;;;1746795;28;20556;-66
2021/12/18 03:41:57;;;;;;;0.00;0.00;;;;;;;;;;1745976;28;20198;-66
2021/12/18 03:42:48;;;;;;;0.00;0.00;;;;;;;;;;1749213;28;20202;-66
2021/12/18 03:43:40;;;;;;;0.00;0.00;;;;;;;;;;1747302;28;20618;-66
2021/12/18 03:44:32;;;;;;;0.00;0.00;;;;;;;;;;1749188;28;20208;-66
2021/12/18 03:45:24;;;;;;;0.00;0.00;;;;;;;;;;1751922;28;20210;-66
2021/12/18 03:46:15;;;;;;;0.00;0.00;;;;;;;;;;1747500;28;20605;-66
2021/12/18 03:47:08;;;;;;;0.00;0.00;;;;;;;;;;1746269;28;20293;-66
2021/12/18 03:47:59;;;;;;;0.00;0.00;;;;;;;;;;1747183;28;20240;-66
2021/12/18 03:48:51;;;;;;;0.00;0.00;;;;;;;;;;1746382;28;20241;-66
2021/12/18 03:49:42;;;;;;;0.00;0.00;;;;;;;;;;1749716;28;20210;-66
2021/12/18 03:50:35;;;;;;;0.00;0.00;;;;;;;;;;1745215;28;20233;-66
2021/12/18 03:51:26;;;;;;;0.00;0.00;;;;;;;;;;1748395;28;20497;-66
2021/12/18 03:52:20;;;;;;;0.00;0.00;;;;;;;;;;1747294;28;20289;-66
2021/12/18 03:53:11;;;;;;;0.00;0.00;;;;;;;;;;1748860;28;20197;-66
2021/12/18 03:54:03;;;;;;;0.00;0.00;;;;;;;;;;1747396;28;20202;-66
2021/12/18 03:54:54;;;;;;;0.00;0.00;;;;;;;;;;1750576;28;20206;-66
2021/12/18 03:55:47;;;;;;;0.00;0.00;;;;;;;;;;1747938;28;20295;-66
2021/12/18 03:56:38;;;;;;;0.00;0.00;;;;;;;;;;1747646;28;20205;-66
2021/12/18 03:57:30;;;;;;;0.00;0.00;;;;;;;;;;1744771;28;20516;-66
2021/12/18 03:58:21;;;;;;;0.00;0.00;;;;;;;;;;1748533;28;20255;-66
2021/12/18 03:59:14;;;;;;;0.00;0.00;;;;;;;;;;1745438;28;20198;-66
2021/12/18 04:00:06;;;;;;;0.00;0.00;;;;;;;;;;1747982;28;20764;-66
2021/12/18 04:00:58;;;;;;;0.00;0.00;;;;;;;;;;1746659;28;20880;-66
2021/12/18 04:01:50;;;;;;;0.00;0.00;;;;;;;;;;1747486;28;20198;-66
2021/12/18 04:02:42;;;;;;;0.00;0.00;;;;;;;;;;1746855;28;20206;-66
2021/12/18 04:03:34;;;;;;;0.00;0.00;;;;;;;;;;1745846;28;20206;-66
2021/12/18 04:04:26;;;;;;;0.00;0.00;;;;;;;;;;1747073;28;20568;-66
2021/12/18 04:05:18;;;;;;;0.00;0.00;;;;;;;;;;1746248;28;20624;-66
2021/12/18 04:06:10;;;;;;;0.00;0.00;;;;;;;;;;1747251;28;20234;-66
2021/12/18 04:07:01;;;;;;;0.00;0.00;;;;;;;;;;1746680;28;20584;-66
2021/12/18 04:08:08;;;;;;;0.00;0.00;;;;;;;;;;1749124;28;20568;-66
2021/12/18 04:08:59;;;;;;;0.00;0.00;;;;;;;;;;1746266;28;20233;-66
2021/12/18 04:09:52;;;;;;;0.00;0.00;;;;;;;;;;1748999;28;20899;-66
2021/12/18 04:10:44;;;;;;;0.00;0.00;;;;;;;;;;1746234;28;20256;-66
2021/12/18 04:11:36;;;;;;;0.00;0.00;;;;;;;;;;1747985;28;20210;-66
2021/12/18 04:12:27;;;;;;;0.00;0.00;;;;;;;;;;1748197;28;20604;-66
2021/12/18 04:13:19;;;;;;;0.00;0.00;;;;;;;;;;1747726;28;20723;-66
2021/12/18 04:14:12;;;;;;;0.00;0.00;;;;;;;;;;1746782;28;20217;-66
2021/12/18 04:15:04;;;;;;;0.00;0.00;;;;;;;;;;1747214;28;20664;-66
2021/12/18 04:15:55;;;;;;;0.00;0.00;;;;;;;;;;1746606;28;20238;-66
2021/12/18 04:16:48;;;;;;;0.00;0.00;;;;;;;;;;1748885;28;20234;-66
2021/12/18 04:17:39;;;;;;;0.00;0.00;;;;;;;;;;1747239;28;20202;-67
2021/12/18 04:18:32;;;;;;;0.10;0.10;;;;;;;;;;1745667;28;20284;-66
2021/12/18 04:19:23;;;;;;;0.00;0.00;;;;;;;;;;1748997;28;20567;-66
2021/12/18 04:20:16;;;;;;;0.00;0.00;;;;;;;;;;1747725;28;20688;-66
2021/12/18 04:21:07;;;;;;;0.00;0.00;;;;;;;;;;1746844;28;20233;-66
2021/12/18 04:21:59;;;;;;;0.00;0.00;;;;;;;;;;1753025;28;20342;-66
2021/12/18 04:22:50;;;;;;;0.00;0.00;;;;;;;;;;1748908;28;20213;-66
2021/12/18 04:23:44;;;;;;;0.00;0.00;;;;;;;;;;1746340;28;20683;-66
2021/12/18 04:24:35;;;;;;;0.00;0.00;;;;;;;;;;1748262;28;20214;-66
2021/12/18 04:25:27;;;;;;;0.00;0.00;;;;;;;;;;1745444;28;20229;-66
2021/12/18 04:26:18;;;;;;;0.00;0.00;;;;;;;;;;1749187;28;20656;-66
2021/12/18 04:27:11;;;;;;;0.00;0.00;;;;;;;;;;1746900;28;20652;-66
2021/12/18 04:28:02;;;;;;;0.00;0.00;;;;;;;;;;1748628;28;20236;-66
2021/12/18 04:28:54;;;;;;;0.00;0.00;;;;;;;;;;1745858;28;20229;-66
2021/12/18 04:29:45;;;;;;;0.10;0.10;;;;;;;;;;1749449;28;20213;-66
2021/12/18 04:30:37;;;;;;;0.00;0.00;;;;;;;;;;1745438;28;20672;-66
2021/12/18 04:31:29;;;;;;;0.00;0.00;;;;;;;;;;1749586;28;20205;-66
2021/12/18 04:32:21;;;;;;;0.00;0.00;;;;;;;;;;1745353;28;20240;-66
2021/12/18 04:33:12;;;;;;;0.00;0.00;;;;;;;;;;1749058;28;20245;-66
2021/12/18 04:34:05;;;;;;;0.10;0.10;;;;;;;;;;1746468;28;20226;-66
2021/12/18 04:34:56;;;;;;;0.10;0.10;;;;;;;;;;1748521;28;20198;-66
2021/12/18 04:35:48;;;;;;;0.10;0.10;;;;;;;;;;1745657;28;20226;-66
2021/12/18 04:36:40;;;;;;;0.20;0.20;;;;;;;;;;1747175;28;20199;-66
2021/12/18 04:37:32;;;;;;;0.10;0.10;;;;;;;;;;1746522;28;20587;-66
2021/12/18 04:38:24;;;;;;;0.10;0.10;;;;;;;;;;1752020;28;20220;-66
2021/12/18 04:39:16;;;;;;;0.10;0.10;;;;;;;;;;1748344;28;20210;-66
2021/12/18 04:40:09;;;;;;;0.10;0.10;;;;;;;;;;1744341;28;20205;-66
2021/12/18 04:41:02;;;;;;;0.10;0.10;;;;;;;;;;1746292;28;21119;-66
2021/12/18 04:41:57;;;;;;;0.17;0.17;;;;;;;;;;1747652;28;20198;-66
2021/12/18 04:42:49;;;;;;;0.20;0.20;;;;;;;;;;1748019;28;20205;-68
2021/12/18 04:43:41;;;;;;;0.10;0.10;;;;;;;;;;1746736;28;20234;-67
2021/12/18 04:44:32;;;;;;;0.20;0.20;;;;;;;;;;1747763;28;20722;-65
2021/12/18 04:45:24;;;;;;;0.20;0.20;;;;;;;;;;1746330;28;20206;-65
2021/12/18 04:46:16;;;;;;;0.08;0.08;;;;;;;;;;1749517;28;20221;-68
2021/12/18 04:47:08;;;;;;;0.40;0.40;;;;;;;;;;1745574;28;20252;-66
2021/12/18 04:47:59;;;;;;;0.20;0.20;;;;;;;;;;1748707;28;20565;-66
2021/12/18 04:48:51;;;;;;;0.40;0.40;;;;;;;;;;1750149;28;20218;-65
2021/12/18 04:49:43;;;;;;;0.20;0.20;;;;;;;;;;1747717;28;20210;-65
2021/12/18 04:50:35;;;;;;;0.10;0.10;;;;;;;;;;1745236;28;20217;-66
2021/12/18 04:51:26;;;;;;;0.30;0.30;;;;;;;;;;1749150;28;20319;-66
2021/12/18 04:52:18;;;;;;;0.30;0.30;;;;;;;;;;1746611;28;20218;-68
2021/12/18 04:53:10;;;;;;;0.10;0.10;;;;;;;;;;1747207;28;20211;-67
2021/12/18 04:54:02;;;;;;;0.00;0.00;;;;;;;;;;1746812;28;20213;-67
2021/12/18 04:54:55;;;;;;;0.20;0.20;;;;;;;;;;1749947;28;20588;-65
2021/12/18 04:55:47;;;;;;;0.30;0.30;;;;;;;;;;1747670;28;20230;-69
2021/12/18 04:56:38;;;;;;;0.10;0.10;;;;;;;;;;1749907;28;20274;-67
2021/12/18 04:57:30;;;;;;;0.10;0.10;;;;;;;;;;1744235;28;20214;-65
2021/12/18 04:58:22;;;;;;;0.20;0.20;;;;;;;;;;1753144;28;20224;-67
2021/12/18 04:59:14;;;;;;;0.20;0.20;;;;;;;;;;1748786;28;20205;-67
2021/12/18 05:00:08;;;;;;;0.30;0.30;;;;;;;;;;1748262;28;20269;-67
2021/12/18 05:00:59;;;;;;;0.10;0.10;;;;;;;;;;1746446;28;20604;-65
2021/12/18 05:01:52;;;;;;;0.00;0.00;;;;;;;;;;1746073;28;20631;-69
2021/12/18 05:02:44;;;;;;;0.00;0.00;;;;;;;;;;1748626;28;20214;-65
2021/12/18 05:03:39;;;;;;;0.10;0.10;;;;;;;;;;1746107;28;20290;-66
2021/12/18 05:04:30;;;;;;;0.00;0.00;;;;;;;;;;1747796;28;20213;-69
2021/12/18 05:05:22;;;;;;;0.03;0.03;;;;;;;;;;1746176;28;20202;-69
2021/12/18 05:06:13;;;;;;;0.10;0.10;;;;;;;;;;1748223;28;20592;-65
2021/12/18 05:07:06;;;;;;;0.00;0.00;;;;;;;;;;1751406;28;20678;-65
2021/12/18 05:07:57;;;;;;;0.10;0.10;;;;;;;;;;1747911;28;20715;-66
2021/12/18 05:08:49;;;;;;;0.10;0.10;;;;;;;;;;1747075;28;20317;-69
2021/12/18 05:09:41;;;;;;;0.08;0.08;;;;;;;;;;1749432;28;20213;-67
2021/12/18 05:10:34;;;;;;;0.00;0.00;;;;;;;;;;1749991;28;20205;-66
2021/12/18 05:11:26;;;;;;;0.00;0.00;;;;;;;;;;1748346;28;20561;-65
2021/12/18 05:12:18;;;;;;;0.00;0.00;;;;;;;;;;1746754;28;20202;-70
2021/12/18 05:13:09;;;;;;;0.08;0.08;;;;;;;;;;1745212;28;20679;-66
2021/12/18 05:14:01;;;;;;;0.00;0.00;;;;;;;;;;1745205;28;20569;-68
2021/12/18 05:14:52;;;;;;;0.00;0.00;;;;;;;;;;1749111;28;20231;-69
2021/12/18 05:15:44;;;;;;;0.10;0.10;;;;;;;;;;1744960;28;20577;-65
2021/12/18 05:16:36;;;;;;;0.00;0.00;;;;;;;;;;1747502;28;20299;-67
2021/12/18 05:17:28;;;;;;;0.00;0.00;;;;;;;;;;1746260;28;20209;-67
2021/12/18 05:18:19;;;;;;;0.00;0.00;;;;;;;;;;1747554;28;20209;-65
2021/12/18 05:19:11;;;;;;;0.20;0.20;;;;;;;;;;1746712;28;20251;-68
2021/12/18 05:20:03;;;;;;;0.10;0.10;;;;;;;;;;1751817;28;20686;-66
2021/12/18 05:20:55;;;;;;;0.15;0.15;;;;;;;;;;1746732;28;20225;-65
2021/12/18 05:21:46;;;;;;;0.43;0.43;;;;;;;;;;1752772;28;20392;-66
2021/12/18 05:22:38;;;;;;;0.10;0.10;;;;;;;;;;1749398;28;20213;-68
2021/12/18 05:23:30;;;;;;;0.10;0.10;;;;;;;;;;1747622;28;20276;-65
2021/12/18 05:24:22;;;;;;;0.00;0.00;;;;;;;;;;1747329;28;20600;-67
2021/12/18 05:25:13;;;;;;;0.20;0.20;;;;;;;;;;1746507;28;20213;-68
2021/12/18 05:26:07;;;;;;;0.00;0.00;;;;;;;;;;1746417;28;20606;-68
2021/12/18 05:26:58;;;;;;;0.03;0.03;;;;;;;;;;1746718;28;20204;-69
2021/12/18 05:27:50;;;;;;;0.00;0.00;;;;;;;;;;1747874;28;20657;-66
2021/12/18 05:28:41;;;;;;;0.00;0.00;;;;;;;;;;1745972;28;20603;-65
2021/12/18 05:29:34;;;;;;;0.00;0.00;;;;;;;;;;1749485;28;20680;-65
2021/12/18 05:30:25;;;;;;;0.00;0.00;;;;;;;;;;1744700;28;20707;-68
2021/12/18 05:31:17;;;;;;;0.00;0.00;;;;;;;;;;1747769;28;20214;-66
2021/12/18 05:32:08;;;;;;;0.00;0.00;;;;;;;;;;1745851;28;20508;-64
2021/12/18 05:33:00;;;;;;;0.00;0.00;;;;;;;;;;1748294;28;20204;-65
2021/12/18 05:33:57;;;;;;;0.08;0.08;;;;;;;;;;1745789;28;20206;-65
2021/12/18 05:34:49;;;;;;;0.08;0.08;;;;;;;;;;1749294;28;20354;-67
2021/12/18 05:35:40;;;;;;;0.00;0.00;;;;;;;;;;1744504;28;20237;-66
2021/12/18 05:36:36;;;;;;;0.00;0.00;;;;;;;;;;1747705;28;20772;-65
2021/12/18 05:37:42;;;;;;;0.00;0.00;;;;;;;;;;1743893;28;20290;-67
2021/12/18 05:38:34;;;;;;;0.00;0.00;;;;;;;;;;1744297;28;20248;-65
2021/12/18 05:39:27;;;;;;;0.05;0.05;;;;;;;;;;1746964;28;20209;-65
2021/12/18 05:40:20;;;;;;;0.00;0.00;;;;;;;;;;1747055;28;20198;-66
2021/12/18 05:41:13;;;;;;;0.00;0.00;;;;;;;;;;1747369;28;20222;-67
2021/12/18 05:42:05;;;;;;;0.00;0.00;;;;;;;;;;1752023;28;20667;-65
2021/12/18 05:42:56;;;;;;;0.10;0.10;;;;;;;;;;1748630;28;20206;-66
2021/12/18 05:43:48;;;;;;;0.00;0.00;;;;;;;;;;1746249;28;20226;-67
2021/12/18 05:44:40;;;;;;;0.00;0.00;;;;;;;;;;1749795;28;20202;-65
2021/12/18 05:45:32;;;;;;;0.00;0.00;;;;;;;;;;1744597;28;20635;-69
2021/12/18 05:46:23;;;;;;;0.03;0.03;;;;;;;;;;1749464;28;20206;-67
2021/12/18 05:47:15;;;;;;;0.08;0.08;;;;;;;;;;1745454;28;20198;-66
2021/12/18 05:48:07;;;;;;;0.00;0.00;;;;;;;;;;1748420;28;20205;-64